Time;durP1;ratioP1;P1;durP2;ratioP2;P2;SDS_P1;SDS_P2;PMS_P1;PMS_P2;Temp;Humidity;BMP_temperature;BMP_pressure;BME280_temperature;BME280_humidity;BME280_pressure;Samples;Min_cycle;Max_cycle;Signal;HPM_P1;HPM_P2
2022/08/04 00:02:20;;;;;;;8.50;2.72;;;19.70;99.90;;;;;;5035195;28;20052;-80
2022/08/04 00:04:50;;;;;;;8.45;2.60;;;19.60;99.90;;;;;;5035370;28;20367;-80
2022/08/04 00:07:34;;;;;;;7.85;2.80;;;19.60;99.90;;;;;;5035343;28;20404;-79
2022/08/04 00:10:16;;;;;;;8.07;2.70;;;19.50;99.90;;;;;;5019791;28;20049;-80
2022/08/04 00:12:48;;;;;;;10.27;2.70;;;19.50;99.90;;;;;;5017923;28;20052;-80
2022/08/04 00:15:17;;;;;;;8.23;2.78;;;19.40;99.90;;;;;;5017180;28;20060;-81
2022/08/04 00:17:53;;;;;;;7.75;2.45;;;19.40;99.90;;;;;;5017835;28;20049;-79
2022/08/04 00:20:22;;;;;;;8.38;2.70;;;19.30;99.90;;;;;;5035479;28;20460;-81
2022/08/04 00:22:51;;;;;;;6.68;1.90;;;19.30;99.90;;;;;;5034194;28;20045;-81
2022/08/04 00:25:19;;;;;;;9.63;2.30;;;19.30;99.50;;;;;;5001908;28;20057;-80
2022/08/04 00:27:47;;;;;;;7.43;2.13;;;19.30;98.30;;;;;;5017062;28;20404;-80
2022/08/04 00:30:15;;;;;;;8.77;2.33;;;19.30;97.80;;;;;;5017770;28;20471;-81
2022/08/04 00:32:48;;;;;;;7.30;2.45;;;19.40;97.00;;;;;;5018598;28;20041;-81
2022/08/04 00:35:17;;;;;;;5.25;2.15;;;19.40;96.30;;;;;;5001017;28;20046;-79
2022/08/04 00:37:45;;;;;;;8.05;2.30;;;19.50;95.10;;;;;;5035016;28;20045;-80
2022/08/04 00:40:42;;;;;;;8.50;2.35;;;19.50;95.30;;;;;;5034960;28;20383;-79
2022/08/04 00:43:37;;;;;;;6.82;2.10;;;19.50;94.90;;;;;;5017670;28;20399;-81
2022/08/04 00:46:43;;;;;;;8.82;2.40;;;19.50;93.80;;;;;;5027157;28;20053;-80
2022/08/04 00:49:32;;;;;;;12.07;2.33;;;19.50;93.70;;;;;;5033801;28;20383;-81
2022/08/04 00:51:59;;;;;;;7.63;1.90;;;19.40;93.60;;;;;;5017357;28;20065;-79
2022/08/04 00:55:21;;;;;;;6.88;2.05;;;19.50;93.70;;;;;;5026077;28;20052;-80
2022/08/04 00:57:49;;;;;;;7.65;2.38;;;19.50;92.90;;;;;;5054690;28;20041;-79
2022/08/04 01:00:17;;;;;;;8.43;2.00;;;19.50;92.90;;;;;;5054836;28;20041;-79
2022/08/04 01:03:06;;;;;;;10.10;2.40;;;19.50;92.70;;;;;;5053745;28;20056;-80
2022/08/04 01:05:37;;;;;;;7.35;2.20;;;19.60;92.50;;;;;;5058731;28;20387;-79
2022/08/04 01:08:05;;;;;;;5.45;2.10;;;19.60;92.50;;;;;;5058303;28;20048;-80
2022/08/04 01:10:59;;;;;;;6.47;2.00;;;19.70;92.20;;;;;;5059092;28;20352;-79
2022/08/04 01:13:48;;;;;;;9.85;2.10;;;19.70;91.50;;;;;;5058138;28;20063;-80
2022/08/04 01:16:19;;;;;;;9.20;1.98;;;19.80;91.60;;;;;;5057510;28;20037;-79
2022/08/04 01:19:00;;;;;;;6.15;2.20;;;19.80;91.50;;;;;;5058043;28;20045;-79
2022/08/04 01:21:46;;;;;;;9.27;2.08;;;19.80;90.60;;;;;;5057755;28;20456;-80
2022/08/04 01:24:29;;;;;;;6.35;1.90;;;19.90;90.80;;;;;;5057371;28;20064;-80
2022/08/04 01:27:21;;;;;;;7.95;2.10;;;19.90;89.60;;;;;;5058619;28;20049;-79
2022/08/04 01:29:52;;;;;;;9.68;2.38;;;19.90;90.00;;;;;;5073177;28;20052;-81
2022/08/04 01:32:34;;;;;;;7.07;2.13;;;19.90;90.10;;;;;;5040792;28;20471;-80
2022/08/04 01:35:08;;;;;;;8.13;2.40;;;20.00;89.80;;;;;;5057550;28;20079;-80
2022/08/04 01:37:58;;;;;;;8.85;2.10;;;19.90;89.80;;;;;;5058211;28;20052;-78
2022/08/04 01:40:27;;;;;;;7.50;1.90;;;19.90;88.00;;;;;;5058069;28;20044;-80
2022/08/04 01:42:57;;;;;;;10.35;2.10;;;19.90;88.90;;;;;;5057234;28;20055;-78
2022/08/04 01:45:29;;;;;;;8.45;2.30;;;19.80;88.90;;;;;;5058061;28;20049;-79
2022/08/04 01:47:57;;;;;;;8.48;2.20;;;19.80;88.80;;;;;;5057034;28;20055;-80
2022/08/04 01:50:26;;;;;;;6.57;1.67;;;19.90;88.70;;;;;;5057725;28;20068;-79
2022/08/04 01:52:55;;;;;;;8.38;2.20;;;19.90;88.50;;;;;;5057643;28;20045;-81
2022/08/04 01:55:26;;;;;;;6.03;1.90;;;19.90;87.60;;;;;;5045465;28;20041;-80
2022/08/04 01:58:17;;;;;;;8.63;2.03;;;19.90;88.00;;;;;;5020811;28;20056;-79
2022/08/04 02:00:56;;;;;;;5.30;1.58;;;19.90;87.30;;;;;;5037861;28;20049;-80
2022/08/04 02:03:24;;;;;;;9.52;2.28;;;19.90;86.50;;;;;;5004581;28;20049;-79
2022/08/04 02:06:42;;;;;;;5.80;1.67;;;19.90;86.90;;;;;;5037397;28;20045;-79
2022/08/04 02:09:39;;;;;;;9.45;2.00;;;19.90;85.40;;;;;;5036224;28;20053;-79
2022/08/04 02:12:39;;;;;;;8.35;2.08;;;19.90;85.70;;;;;;5037426;28;20048;-81
2022/08/04 02:15:13;;;;;;;8.07;2.05;;;19.90;85.60;;;;;;5036433;28;20061;-80
2022/08/04 02:18:25;;;;;;;7.68;2.10;;;19.80;86.00;;;;;;5037472;28;20056;-79
2022/08/04 02:21:02;;;;;;;8.50;1.95;;;19.80;85.80;;;;;;4956828;29;20051;-79
2022/08/04 02:23:34;;;;;;;6.90;2.20;;;19.80;86.10;;;;;;5027277;28;20053;-81
2022/08/04 02:26:12;;;;;;;8.60;2.30;;;19.80;86.40;;;;;;5020216;28;20391;-79
2022/08/04 02:29:13;;;;;;;6.68;2.30;;;19.80;86.50;;;;;;5036817;28;20341;-78
2022/08/04 02:32:05;;;;;;;6.20;2.45;;;19.80;86.60;;;;;;5020188;28;20045;-81
2022/08/04 02:34:49;;;;;;;9.15;2.25;;;19.80;87.00;;;;;;5026847;28;20041;-79
2022/08/04 02:37:19;;;;;;;5.90;2.13;;;19.90;87.30;;;;;;5019756;28;20365;-81
2022/08/04 02:39:52;;;;;;;7.45;2.10;;;19.80;87.40;;;;;;5036822;28;20452;-80
2022/08/04 02:42:20;;;;;;;7.93;2.38;;;19.80;87.70;;;;;;5018890;28;20042;-81
2022/08/04 02:44:58;;;;;;;9.32;2.45;;;19.80;87.80;;;;;;5036891;28;20041;-80
2022/08/04 02:47:28;;;;;;;8.57;2.67;;;19.80;87.70;;;;;;5019542;28;20049;-79
2022/08/04 02:50:18;;;;;;;8.35;2.17;;;19.80;87.80;;;;;;5022670;28;20044;-80
2022/08/04 02:53:01;;;;;;;8.05;2.03;;;19.70;87.90;;;;;;5020174;28;20045;-80
2022/08/04 02:55:30;;;;;;;8.07;2.15;;;19.70;88.10;;;;;;5038909;28;20471;-80
2022/08/04 02:58:01;;;;;;;9.20;2.30;;;19.70;88.10;;;;;;5055892;28;20060;-78
2022/08/04 03:00:29;;;;;;;7.65;2.20;;;18.40;87.30;;;;;;5056340;28;20049;-78
2022/08/04 03:03:23;;;;;;;8.30;2.00;;;19.70;87.90;;;;;;5054546;28;20064;-80
2022/08/04 03:05:55;;;;;;;8.15;2.30;;;19.60;87.40;;;;;;5055604;28;20364;-79
2022/08/04 03:08:46;;;;;;;9.45;2.15;;;19.60;87.80;;;;;;5055410;28;20059;-78
2022/08/04 03:11:13;;;;;;;7.75;2.25;;;19.60;86.60;;;;;;5056497;28;20045;-79
2022/08/04 03:14:12;;;;;;;5.90;1.65;;;19.50;86.70;;;;;;5056483;28;20056;-79
2022/08/04 03:16:49;;;;;;;6.97;2.03;;;19.40;85.20;;;;;;5056364;28;20052;-81
2022/08/04 03:19:22;;;;;;;7.22;2.13;;;19.40;85.20;;;;;;5056121;28;20478;-79
2022/08/04 03:22:21;;;;;;;6.30;1.70;;;19.40;85.80;;;;;;5054806;28;20459;-78
2022/08/04 03:25:22;;;;;;;6.43;1.98;;;19.40;84.40;;;;;;5055909;28;20049;-78
2022/08/04 03:28:26;;;;;;;8.32;2.10;;;19.30;85.10;;;;;;5000972;28;20383;-79
2022/08/04 03:31:36;;;;;;;8.02;2.13;;;19.30;83.60;;;;;;5056031;28;20052;-80
2022/08/04 03:34:15;;;;;;;9.40;2.00;;;19.20;83.60;;;;;;5019580;28;20045;-78
2022/08/04 03:37:07;;;;;;;7.05;1.83;;;19.10;84.20;;;;;;5056307;28;20056;-80
2022/08/04 03:40:03;;;;;;;8.43;2.00;;;19.10;84.30;;;;;;5055912;28;20037;-80
2022/08/04 03:43:04;;;;;;;7.63;1.92;;;19.00;84.00;;;;;;5055165;28;20044;-78
2022/08/04 03:45:50;;;;;;;7.20;2.05;;;18.90;84.40;;;;;;5055858;28;20052;-79
2022/08/04 03:48:32;;;;;;;9.05;2.05;;;18.90;84.60;;;;;;5054880;28;20052;-80
2022/08/04 03:54:26;;;;;;;9.75;2.10;;;18.80;84.90;;;;;;5055125;28;20049;-79
2022/08/04 03:57:19;;;;;;;11.70;2.35;;;18.80;85.00;;;;;;5018930;28;20041;-80
2022/08/04 04:00:05;;;;;;;9.45;2.10;;;18.80;84.80;;;;;;5035878;28;20041;-81
2022/08/04 04:02:47;;;;;;;7.35;1.90;;;19.70;85.30;;;;;;5034887;28;20041;-80
2022/08/04 04:05:35;;;;;;;7.22;2.05;;;18.70;85.10;;;;;;5002468;28;20037;-80
2022/08/04 04:08:31;;;;;;;9.13;2.25;;;18.70;85.10;;;;;;5001786;28;20476;-79
2022/08/04 04:11:22;;;;;;;9.18;2.10;;;18.70;85.20;;;;;;5035321;28;20042;-80
2022/08/04 04:14:22;;;;;;;9.63;2.03;;;18.70;85.30;;;;;;5018478;28;20345;-78
2022/08/04 04:17:22;;;;;;;9.55;2.10;;;18.70;84.90;;;;;;5035395;28;20041;-81
2022/08/04 04:19:54;;;;;;;9.77;2.20;;;18.70;85.20;;;;;;5002381;28;20064;-80
2022/08/04 04:23:13;;;;;;;9.43;2.30;;;18.70;85.30;;;;;;5034498;28;20061;-78
2022/08/04 04:26:05;;;;;;;9.88;2.15;;;18.70;85.10;;;;;;5023519;28;20065;-79
2022/08/04 04:28:50;;;;;;;8.90;2.10;;;18.60;85.30;;;;;;5034820;28;20047;-79
2022/08/04 04:31:22;;;;;;;10.73;2.10;;;18.50;85.60;;;;;;5017701;28;20052;-80
2022/08/04 04:33:58;;;;;;;8.25;2.33;;;18.50;86.00;;;;;;5017864;28;20045;-79
2022/08/04 04:36:29;;;;;;;8.93;2.22;;;18.40;86.50;;;;;;4984503;28;20056;-80
2022/08/04 04:39:00;;;;;;;11.35;2.70;;;18.30;86.60;;;;;;5001428;28;20049;-78
2022/08/04 04:41:47;;;;;;;14.57;2.53;;;18.20;86.90;;;;;;5034475;28;20049;-78
2022/08/04 04:44:50;;;;;;;9.88;2.70;;;18.10;87.40;;;;;;5034701;28;20053;-78
2022/08/04 04:47:30;;;;;;;15.75;2.78;;;18.00;88.10;;;;;;5035013;28;20472;-80
2022/08/04 04:50:35;;;;;;;15.10;3.28;;;17.90;88.30;;;;;;5021311;28;20387;-81
2022/08/04 04:53:26;;;;;;;11.07;2.88;;;17.80;89.50;;;;;;5034620;28;20049;-79
2022/08/04 04:56:11;;;;;;;13.50;3.00;;;17.70;89.80;;;;;;5044000;28;20049;-80
2022/08/04 04:58:39;;;;;;;11.85;3.25;;;17.70;90.00;;;;;;5053707;28;20060;-80
2022/08/04 05:01:41;;;;;;;10.57;3.10;;;17.60;90.00;;;;;;5052653;28;20053;-78
2022/08/04 05:04:26;;;;;;;16.95;3.47;;;17.50;90.40;;;;;;5054857;28;20053;-80
2022/08/04 05:07:32;;;;;;;13.35;3.50;;;17.50;90.40;;;;;;5054615;28;20041;-80
2022/08/04 05:10:18;;;;;;;13.27;3.20;;;17.50;90.90;;;;;;5053989;28;20049;-80
2022/08/04 05:12:53;;;;;;;13.85;3.30;;;17.50;90.70;;;;;;5054027;28;20049;-80
2022/08/04 05:15:43;;;;;;;12.10;3.40;;;17.50;90.70;;;;;;5053508;28;20048;-78
2022/08/04 05:18:20;;;;;;;20.25;4.97;;;17.50;90.70;;;;;;5054775;28;20045;-79
2022/08/04 05:20:54;;;;;;;9.45;3.05;;;17.50;90.80;;;;;;5054144;28;20041;-78
2022/08/04 05:23:29;;;;;;;10.18;3.10;;;17.50;90.90;;;;;;5037417;28;20049;-78
2022/08/04 05:26:03;;;;;;;14.10;3.28;;;17.60;91.00;;;;;;5053882;28;20045;-80
2022/08/04 05:28:37;;;;;;;14.55;3.20;;;17.60;90.90;;;;;;5053776;28;20037;-80
2022/08/04 05:31:26;;;;;;;13.75;3.25;;;17.80;90.80;;;;;;5053653;28;20363;-78
2022/08/04 05:34:14;;;;;;;13.75;2.80;;;18.00;90.70;;;;;;5053652;28;20060;-80
2022/08/04 05:36:48;;;;;;;14.13;3.13;;;18.10;90.40;;;;;;5053230;28;20056;-81
2022/08/04 05:39:24;;;;;;;12.27;3.05;;;18.20;90.30;;;;;;5055279;28;20041;-79
2022/08/04 05:41:53;;;;;;;12.35;2.50;;;18.30;90.00;;;;;;5052701;28;20060;-81
2022/08/04 05:44:27;;;;;;;12.88;2.63;;;18.40;89.50;;;;;;5053648;28;20352;-78
2022/08/04 05:46:57;;;;;;;7.93;2.15;;;18.50;89.10;;;;;;5053286;28;20045;-80
2022/08/04 05:49:28;;;;;;;15.00;2.67;;;18.60;87.20;;;;;;5053823;28;20360;-78
2022/08/04 05:52:01;;;;;;;10.48;2.33;;;18.60;87.70;;;;;;5057387;28;20371;-78
2022/08/04 05:54:34;;;;;;;9.80;2.45;;;18.60;87.30;;;;;;5053106;28;20325;-80
2022/08/04 05:57:04;;;;;;;11.18;2.33;;;18.60;86.90;;;;;;5037985;28;20353;-79
2022/08/04 05:59:36;;;;;;;15.30;2.78;;;18.70;87.50;;;;;;5004485;28;20038;-80
2022/08/04 06:02:08;;;;;;;9.07;2.08;;;18.70;87.30;;;;;;5037057;28;20045;-78
2022/08/04 06:04:40;;;;;;;13.68;3.00;;;18.70;87.50;;;;;;5038081;28;20387;-79
2022/08/04 06:07:11;;;;;;;14.52;2.65;;;18.80;87.40;;;;;;5020870;28;20064;-78
2022/08/04 06:09:40;;;;;;;12.38;2.63;;;18.80;87.30;;;;;;5036799;28;20061;-80
2022/08/04 06:12:25;;;;;;;12.60;2.78;;;17.70;86.80;;;;;;5037147;28;20045;-80
2022/08/04 06:14:55;;;;;;;11.00;2.75;;;18.60;87.60;;;;;;5036461;28;20041;-78
2022/08/04 06:17:37;;;;;;;12.68;2.88;;;18.40;88.00;;;;;;5020070;28;20045;-78
2022/08/04 06:20:35;;;;;;;12.77;2.72;;;18.30;88.80;;;;;;5022931;28;20048;-79
2022/08/04 06:23:07;;;;;;;11.93;2.60;;;18.10;89.50;;;;;;5002590;28;20049;-79
2022/08/04 06:25:49;;;;;;;12.75;2.83;;;18.00;89.80;;;;;;5020208;28;20049;-81
2022/08/04 06:28:19;;;;;;;14.77;2.78;;;18.00;90.40;;;;;;5036135;28;20056;-80
2022/08/04 06:30:49;;;;;;;11.65;2.58;;;18.00;90.60;;;;;;5037143;28;20050;-81
2022/08/04 06:33:36;;;;;;;15.73;2.80;;;17.90;90.60;;;;;;5020326;28;20045;-78
2022/08/04 06:36:22;;;;;;;11.77;2.40;;;17.90;90.50;;;;;;5018787;28;20345;-80
2022/08/04 06:38:50;;;;;;;12.10;2.35;;;17.90;90.40;;;;;;5019844;28;20045;-79
2022/08/04 06:41:28;;;;;;;7.68;2.05;;;17.90;90.30;;;;;;5036393;28;20042;-82
2022/08/04 06:44:02;;;;;;;9.85;2.22;;;17.90;90.60;;;;;;5020021;28;20049;-79
2022/08/04 06:46:31;;;;;;;11.90;2.25;;;17.90;90.30;;;;;;5036871;28;20048;-79
2022/08/04 06:49:04;;;;;;;13.27;2.30;;;17.90;90.30;;;;;;5018165;28;20045;-82
2022/08/04 06:51:37;;;;;;;11.07;2.10;;;17.90;90.30;;;;;;5036721;28;20049;-79
2022/08/04 06:54:15;;;;;;;11.98;1.95;;;17.90;90.40;;;;;;5003507;28;20049;-80
2022/08/04 06:56:44;;;;;;;;;;;17.90;90.30;;;;;;5020133;28;20054;-78
2022/08/04 06:59:15;;;;;;;11.75;2.10;;;17.90;90.20;;;;;;5018722;28;20347;-71
2022/08/04 07:01:45;;;;;;;11.82;2.20;;;18.00;90.10;;;;;;5018442;28;20050;-72
2022/08/04 07:04:13;;;;;;;11.20;2.50;;;18.00;90.10;;;;;;5019005;28;20064;-72
2022/08/04 07:06:41;;;;;;;;;;;18.00;90.00;;;;;;5036630;28;20072;-72
2022/08/04 07:09:09;;;;;;;11.65;2.30;;;18.10;90.00;;;;;;5018103;28;19921;-72
2022/08/04 07:11:40;;;;;;;11.80;2.05;;;18.10;90.00;;;;;;5037356;28;20045;-78
2022/08/04 07:14:26;;;;;;;;;;;;;;;;;;;;;
2022/08/04 07:17:06;;;;;;;10.82;2.17;;;18.20;89.10;;;;;;5018712;28;20050;-77
2022/08/04 07:19:40;;;;;;;13.57;2.47;;;18.10;90.00;;;;;;5036146;28;20056;-81
2022/08/04 07:22:34;;;;;;;10.43;2.28;;;17.20;89.80;;;;;;5021802;28;20364;-79
2022/08/04 07:25:31;;;;;;;12.52;2.63;;;18.20;90.10;;;;;;5019051;28;20383;-85
2022/08/04 07:28:40;;;;;;;11.25;2.38;;;18.20;90.30;;;;;;4994469;28;20060;-71
2022/08/04 07:32:09;;;;;;;15.50;2.70;;;18.30;89.80;;;;;;5035723;28;20486;-80
2022/08/04 07:34:37;;;;;;;10.35;2.13;;;17.20;89.90;;;;;;5033206;28;20056;-78
2022/08/04 07:37:25;;;;;;;12.23;2.10;;;18.30;89.30;;;;;;5035619;28;20053;-83
2022/08/04 07:40:40;;;;;;;11.63;2.38;;;18.30;89.50;;;;;;4974998;28;20043;-73
2022/08/04 07:43:26;;;;;;;12.40;2.30;;;18.40;89.20;;;;;;4997068;28;20049;-83
2022/08/04 07:46:26;;;;;;;11.23;2.35;;;18.50;89.50;;;;;;5005931;28;20057;-78
2022/08/04 07:49:04;;;;;;;10.20;2.20;;;18.50;89.60;;;;;;5017854;28;20049;-78
2022/08/04 07:51:34;;;;;;;11.20;2.38;;;18.50;89.30;;;;;;5035884;28;20046;-82
2022/08/04 07:54:12;;;;;;;11.18;2.38;;;18.60;88.30;;;;;;5017480;28;20048;-78
2022/08/04 07:56:41;;;;;;;11.35;2.30;;;18.60;88.60;;;;;;5035904;28;20052;-84
2022/08/04 07:59:10;;;;;;;16.02;2.47;;;18.70;88.10;;;;;;5035000;28;20041;-73
2022/08/04 08:01:44;;;;;;;10.50;2.28;;;18.90;88.00;;;;;;5034268;28;20053;-81
2022/08/04 08:04:13;;;;;;;11.32;2.42;;;18.90;87.70;;;;;;5035202;28;20042;-72
2022/08/04 08:06:41;;;;;;;10.18;2.28;;;19.00;87.10;;;;;;5035210;28;20061;-78
2022/08/04 08:09:15;;;;;;;10.10;2.03;;;19.00;87.10;;;;;;5017313;28;20049;-77
2022/08/04 08:11:48;;;;;;;13.07;2.35;;;19.10;86.90;;;;;;5017884;28;20057;-78
2022/08/04 08:14:37;;;;;;;8.18;2.08;;;19.20;87.00;;;;;;5019816;28;20048;-78
2022/08/04 08:17:05;;;;;;;7.90;2.22;;;19.30;87.20;;;;;;5034768;28;20053;-79
2022/08/04 08:19:34;;;;;;;7.95;2.10;;;19.40;85.70;;;;;;5001131;28;20344;-80
2022/08/04 08:22:05;;;;;;;10.63;2.28;;;19.50;85.90;;;;;;5017302;28;20057;-78
2022/08/04 08:24:38;;;;;;;;;;;19.60;85.70;;;;;;5035465;28;20053;-81
2022/08/04 08:27:06;;;;;;;8.00;1.83;;;19.70;84.10;;;;;;5001200;28;19920;-74
2022/08/04 08:29:43;;;;;;;8.20;1.98;;;19.70;84.80;;;;;;5016728;28;20056;-79
2022/08/04 08:32:14;;;;;;;9.48;2.05;;;19.80;84.20;;;;;;5034265;28;20045;-80
2022/08/04 08:34:44;;;;;;;13.65;2.35;;;19.80;83.70;;;;;;5033995;28;20045;-80
2022/08/04 08:37:18;;;;;;;14.10;2.45;;;19.70;83.60;;;;;;5034678;28;20049;-77
2022/08/04 08:40:08;;;;;;;8.77;2.45;;;18.60;83.50;;;;;;5017703;28;20045;-81
2022/08/04 08:43:15;;;;;;;12.30;2.53;;;19.70;83.30;;;;;;5016579;28;20049;-73
2022/08/04 08:46:16;;;;;;;8.93;2.00;;;19.70;83.70;;;;;;4976033;28;20060;-81
2022/08/04 08:49:26;;;;;;;10.13;2.42;;;19.70;83.70;;;;;;5033674;28;20506;-76
2022/08/04 08:52:30;;;;;;;8.90;2.50;;;19.80;83.20;;;;;;5034359;28;20052;-74
2022/08/04 08:55:54;;;;;;;7.38;2.22;;;19.80;82.00;;;;;;5034149;28;20060;-71
2022/08/04 08:58:40;;;;;;;9.82;2.28;;;19.90;81.70;;;;;;5054253;28;20053;-73
2022/08/04 09:01:07;;;;;;;9.25;2.15;;;19.90;81.90;;;;;;5053428;28;20041;-76
2022/08/04 09:04:20;;;;;;;10.50;2.10;;;20.00;82.30;;;;;;5054222;28;20056;-75
2022/08/04 09:06:57;;;;;;;10.25;2.10;;;20.10;81.60;;;;;;5051651;28;20064;-80
2022/08/04 09:09:33;;;;;;;8.55;2.22;;;20.30;80.60;;;;;;5052435;28;20467;-76
2022/08/04 09:12:17;;;;;;;8.13;2.35;;;20.40;80.70;;;;;;5054023;28;20045;-78
2022/08/04 09:15:30;;;;;;;11.65;2.28;;;20.40;80.30;;;;;;5053410;28;20041;-80
2022/08/04 09:18:02;;;;;;;12.85;2.55;;;20.60;80.80;;;;;;4973722;28;20385;-77
2022/08/04 09:21:05;;;;;;;12.68;2.22;;;20.80;79.80;;;;;;5040904;28;20064;-81
2022/08/04 09:23:56;;;;;;;12.45;2.42;;;21.00;79.40;;;;;;5040788;28;20049;-78
2022/08/04 09:26:32;;;;;;;7.88;2.22;;;21.20;78.00;;;;;;5047688;28;20056;-78
2022/08/04 09:29:20;;;;;;;8.57;2.20;;;21.40;78.00;;;;;;5056430;28;20494;-75
2022/08/04 09:31:57;;;;;;;6.43;1.73;;;21.60;76.90;;;;;;5057210;28;20053;-72
2022/08/04 09:34:58;;;;;;;7.82;2.15;;;21.70;75.60;;;;;;5056165;28;20045;-75
2022/08/04 09:38:02;;;;;;;10.53;2.10;;;21.80;75.60;;;;;;5057914;28;20052;-79
2022/08/04 09:40:53;;;;;;;8.45;2.10;;;21.90;75.60;;;;;;5057498;28;20278;-74
2022/08/04 09:43:37;;;;;;;10.57;2.38;;;22.10;76.00;;;;;;5057673;28;20474;-74
2022/08/04 09:46:33;;;;;;;13.18;2.15;;;22.20;74.70;;;;;;5056972;28;20463;-77
2022/08/04 09:49:14;;;;;;;10.88;2.00;;;22.40;74.90;;;;;;5039404;28;20072;-75
2022/08/04 09:51:49;;;;;;;12.80;2.42;;;22.50;73.90;;;;;;5057590;28;20052;-74
2022/08/04 09:54:38;;;;;;;9.85;2.15;;;22.80;74.30;;;;;;5052962;28;20064;-83
2022/08/04 09:57:14;;;;;;;13.07;2.00;;;23.00;72.70;;;;;;5037503;28;20049;-74
2022/08/04 09:59:52;;;;;;;8.35;2.10;;;23.10;72.10;;;;;;5037471;28;20064;-76
2022/08/04 10:02:21;;;;;;;;;;;23.10;72.50;;;;;;5003336;28;20045;-75
2022/08/04 10:04:52;;;;;;;8.13;1.98;;;23.10;71.10;;;;;;5020441;28;20275;-74
2022/08/04 10:07:45;;;;;;;6.75;1.50;;;23.10;71.00;;;;;;5019905;28;20049;-76
2022/08/04 10:11:05;;;;;;;9.05;1.83;;;23.10;70.10;;;;;;5006424;28;20064;-74
2022/08/04 10:14:01;;;;;;;7.35;1.98;;;23.20;70.70;;;;;;5032298;28;20056;-76
2022/08/04 10:16:28;;;;;;;8.35;1.83;;;23.30;70.50;;;;;;5036019;28;20085;-74
2022/08/04 10:19:50;;;;;;;8.82;1.95;;;23.30;70.80;;;;;;5019864;28;20053;-72
2022/08/04 10:22:30;;;;;;;8.02;1.80;;;23.30;69.50;;;;;;4956254;29;20048;-78
2022/08/04 10:25:28;;;;;;;6.88;1.77;;;23.40;70.10;;;;;;5049133;28;20049;-73
2022/08/04 10:28:20;;;;;;;10.60;1.70;;;23.60;70.10;;;;;;5035726;28;20052;-73
2022/08/04 10:30:59;;;;;;;10.15;1.83;;;23.80;69.40;;;;;;5037030;28;20049;-73
2022/08/04 10:33:31;;;;;;;8.45;1.63;;;24.00;68.70;;;;;;5019352;28;20057;-73
2022/08/04 10:36:03;;;;;;;7.25;1.65;;;24.20;68.80;;;;;;5035213;28;20041;-74
2022/08/04 10:38:39;;;;;;;5.38;1.55;;;24.20;68.40;;;;;;5036618;28;20471;-76
2022/08/04 10:41:17;;;;;;;6.65;1.73;;;24.10;68.50;;;;;;5018304;28;20049;-74
2022/08/04 10:44:03;;;;;;;13.00;2.20;;;24.00;69.00;;;;;;5036624;28;20050;-75
2022/08/04 10:46:41;;;;;;;10.13;1.83;;;23.80;67.70;;;;;;5013284;28;20041;-75
2022/08/04 10:49:15;;;;;;;7.75;1.90;;;23.70;68.10;;;;;;5018151;28;20060;-78
2022/08/04 10:52:12;;;;;;;9.95;2.00;;;23.50;68.40;;;;;;5017798;28;20049;-73
2022/08/04 10:54:51;;;;;;;10.60;1.50;;;23.40;69.00;;;;;;5013042;28;20050;-73
2022/08/04 10:57:27;;;;;;;9.15;1.85;;;23.30;69.40;;;;;;5016113;28;20053;-75
2022/08/04 11:00:03;;;;;;;7.60;2.00;;;23.20;69.10;;;;;;5016808;28;20049;-73
2022/08/04 11:03:16;;;;;;;10.77;2.00;;;23.10;68.30;;;;;;5015533;28;20358;-76
2022/08/04 11:05:54;;;;;;;8.27;1.90;;;23.10;69.50;;;;;;4999207;28;20049;-75
2022/08/04 11:08:22;;;;;;;6.88;1.52;;;23.30;69.60;;;;;;4997732;28;20046;-74
2022/08/04 11:11:08;;;;;;;7.75;1.67;;;23.50;69.20;;;;;;5016143;28;20342;-77
2022/08/04 11:13:46;;;;;;;9.55;1.70;;;23.70;68.30;;;;;;5016335;28;20453;-74
2022/08/04 11:16:23;;;;;;;7.57;1.55;;;23.80;67.30;;;;;;5015101;28;20049;-75
2022/08/04 11:19:28;;;;;;;6.32;1.63;;;24.00;67.80;;;;;;5016089;28;20038;-77
2022/08/04 11:22:25;;;;;;;4.80;1.52;;;24.30;66.40;;;;;;5000357;28;20046;-76
2022/08/04 11:24:59;;;;;;;5.88;1.45;;;24.40;66.10;;;;;;5016075;28;20458;-77
2022/08/04 11:27:42;;;;;;;8.20;1.55;;;24.60;66.00;;;;;;5016043;28;20380;-73
2022/08/04 11:30:12;;;;;;;8.13;1.50;;;24.60;65.70;;;;;;5016184;28;20385;-75
2022/08/04 11:33:00;;;;;;;6.60;1.60;;;24.60;65.50;;;;;;5015894;28;20057;-75
2022/08/04 11:35:51;;;;;;;10.30;2.08;;;24.50;65.60;;;;;;5014612;28;20050;-75
2022/08/04 11:39:07;;;;;;;5.30;1.70;;;24.70;65.80;;;;;;5015609;28;20045;-75
2022/08/04 11:41:59;;;;;;;5.18;1.65;;;25.10;64.00;;;;;;4972758;28;20052;-76
2022/08/04 11:44:32;;;;;;;7.90;1.63;;;25.30;63.60;;;;;;5015563;28;20056;-78
2022/08/04 11:47:17;;;;;;;5.10;1.63;;;25.40;64.70;;;;;;5015018;28;20148;-76
2022/08/04 11:49:53;;;;;;;5.00;1.40;;;25.60;64.40;;;;;;5014526;28;20060;-74
2022/08/04 11:52:27;;;;;;;6.30;1.73;;;25.70;64.00;;;;;;4998264;28;20065;-75
2022/08/04 11:54:56;;;;;;;5.68;1.80;;;25.90;63.90;;;;;;5014095;28;20061;-72
2022/08/04 11:57:24;;;;;;;11.90;2.03;;;25.90;63.60;;;;;;5015369;28;20042;-73
2022/08/04 12:00:09;;;;;;;4.40;1.33;;;25.80;63.60;;;;;;5015390;28;20441;-74
2022/08/04 12:03:21;;;;;;;7.95;2.20;;;25.80;62.60;;;;;;5027551;28;20056;-74
2022/08/04 12:06:10;;;;;;;10.38;1.90;;;25.70;62.80;;;;;;5031632;28;20049;-76
2022/08/04 12:09:01;;;;;;;8.55;2.10;;;25.80;63.40;;;;;;5001945;28;20053;-74
2022/08/04 12:11:50;;;;;;;5.10;1.30;;;26.10;63.20;;;;;;4970395;28;20053;-75
2022/08/04 12:14:25;;;;;;;8.20;1.50;;;26.20;61.70;;;;;;4996837;28;20041;-74
2022/08/04 12:17:00;;;;;;;7.45;1.55;;;26.10;61.00;;;;;;5015135;28;20042;-74
2022/08/04 12:19:53;;;;;;;5.43;1.50;;;25.90;61.50;;;;;;5015166;28;20046;-73
2022/08/04 12:22:36;;;;;;;6.05;1.52;;;25.80;61.60;;;;;;5013936;28;20380;-74
2022/08/04 12:25:12;;;;;;;6.00;1.25;;;25.70;61.90;;;;;;4998610;28;20056;-75
2022/08/04 12:27:48;;;;;;;4.32;1.33;;;25.70;61.60;;;;;;4996808;28;20057;-74
2022/08/04 12:30:18;;;;;;;6.10;1.77;;;25.80;60.90;;;;;;5014923;28;20042;-74
2022/08/04 12:33:30;;;;;;;6.38;1.38;;;26.00;60.30;;;;;;5014834;28;20377;-75
2022/08/04 12:36:39;;;;;;;6.10;1.52;;;26.10;58.40;;;;;;4996359;28;20389;-75
2022/08/04 12:39:11;;;;;;;6.45;1.80;;;26.40;59.60;;;;;;5014790;28;20476;-75
2022/08/04 12:41:50;;;;;;;4.45;1.40;;;26.60;59.60;;;;;;4980278;28;20046;-74
2022/08/04 12:44:19;;;;;;;5.63;1.55;;;26.90;59.70;;;;;;4997831;28;20050;-74
2022/08/04 12:47:09;;;;;;;6.30;2.45;;;27.20;59.70;;;;;;5014621;28;20042;-75
2022/08/04 12:50:02;;;;;;;6.25;1.33;;;27.50;59.00;;;;;;4999908;28;20489;-79
2022/08/04 12:52:40;;;;;;;9.30;2.03;;;27.60;58.00;;;;;;4997493;28;20046;-77
2022/08/04 12:55:32;;;;;;;10.40;1.90;;;27.70;58.10;;;;;;5016219;28;20350;-77
2022/08/04 12:58:11;;;;;;;3.90;1.42;;;27.70;57.00;;;;;;5034308;28;20072;-76
2022/08/04 13:00:40;;;;;;;17.65;2.55;;;27.70;57.50;;;;;;5040891;28;20049;-75
2022/08/04 13:03:13;;;;;;;6.63;1.40;;;27.70;58.20;;;;;;5039476;28;20041;-74
2022/08/04 13:05:41;;;;;;;5.97;1.23;;;27.80;58.30;;;;;;5040831;28;20056;-75
2022/08/04 13:08:10;;;;;;;9.68;1.48;;;28.10;57.90;;;;;;5039804;28;20045;-74
2022/08/04 13:10:41;;;;;;;4.75;1.30;;;28.20;57.50;;;;;;5040735;28;20057;-74
2022/08/04 13:13:18;;;;;;;5.20;1.40;;;28.00;57.30;;;;;;5040775;28;20060;-74
2022/08/04 13:16:03;;;;;;;8.00;1.60;;;27.90;56.80;;;;;;5039666;28;20376;-73
2022/08/04 13:18:40;;;;;;;4.60;1.40;;;27.80;56.40;;;;;;5040697;28;20064;-74
2022/08/04 13:21:17;;;;;;;4.60;1.30;;;27.80;56.70;;;;;;5039604;28;20498;-73
2022/08/04 13:23:57;;;;;;;5.40;1.50;;;27.80;56.00;;;;;;5039986;28;20049;-74
2022/08/04 13:27:12;;;;;;;4.57;1.30;;;27.10;55.60;;;;;;5040644;28;20049;-73
2022/08/04 13:29:49;;;;;;;8.13;1.40;;;27.90;55.20;;;;;;5039553;28;20049;-74
2022/08/04 13:32:28;;;;;;;6.90;1.35;;;28.10;55.80;;;;;;5040301;28;20076;-75
2022/08/04 13:34:59;;;;;;;4.60;1.52;;;28.20;55.40;;;;;;5038670;28;20057;-75
2022/08/04 13:37:37;;;;;;;2.35;1.00;;;28.40;55.60;;;;;;5040644;28;20372;-74
2022/08/04 13:40:10;;;;;;;4.82;1.17;;;28.60;53.70;;;;;;5040549;28;20041;-73
2022/08/04 13:42:40;;;;;;;4.78;1.20;;;28.70;53.60;;;;;;5038609;28;20407;-74
2022/08/04 13:45:10;;;;;;;3.88;1.20;;;28.70;53.50;;;;;;5039700;28;20059;-75
2022/08/04 13:47:39;;;;;;;4.78;1.30;;;28.80;54.50;;;;;;5039117;28;20049;-77
2022/08/04 13:50:10;;;;;;;6.72;1.33;;;28.90;54.50;;;;;;5039627;28;20060;-79
2022/08/04 13:52:41;;;;;;;3.83;1.38;;;29.50;54.30;;;;;;5039731;28;20057;-77
2022/08/04 13:55:29;;;;;;;4.80;1.27;;;29.70;53.00;;;;;;5039308;28;20037;-78
2022/08/04 13:58:02;;;;;;;7.40;1.40;;;29.60;53.00;;;;;;5040337;28;20346;-76
2022/08/04 14:00:43;;;;;;;6.25;1.40;;;29.60;53.20;;;;;;5040337;28;20487;-79
2022/08/04 14:03:18;;;;;;;5.35;1.42;;;29.40;53.50;;;;;;5039071;28;20314;-77
2022/08/04 14:06:25;;;;;;;5.88;1.20;;;29.10;54.60;;;;;;5044637;28;20048;-76